Time;durP1;ratioP1;P1;durP2;ratioP2;P2;SDS_P1;SDS_P2;PMS_P1;PMS_P2;Temp;Humidity;BMP_temperature;BMP_pressure;BME280_temperature;BME280_humidity;BME280_pressure;Samples;Min_cycle;Max_cycle;Signal;HPM_P1;HPM_P2
2024/04/08 00:01:46;;;;;;;0.87;0.60;;;14.90;99.90;;;;;;5075422;28;20190;-63
2024/04/08 00:04:11;;;;;;;0.77;0.43;;;14.90;99.90;;;;;;5069577;28;20265;-63
2024/04/08 00:06:37;;;;;;;0.40;0.40;;;14.80;99.90;;;;;;5070041;28;20218;-63
2024/04/08 00:09:03;;;;;;;1.37;0.60;;;14.80;99.90;;;;;;5069579;28;20568;-63
2024/04/08 00:11:29;;;;;;;0.60;0.43;;;14.70;99.90;;;;;;5069579;28;20190;-63
2024/04/08 00:13:55;;;;;;;2.93;0.83;;;14.70;99.90;;;;;;5069605;28;20721;-63
2024/04/08 00:16:23;;;;;;;3.27;0.67;;;14.70;99.90;;;;;;5069354;28;20305;-65
2024/04/08 00:18:48;;;;;;;1.53;0.80;;;14.60;99.90;;;;;;5069375;28;20229;-64
2024/04/08 00:21:14;;;;;;;0.40;0.40;;;14.50;99.90;;;;;;5068875;28;20753;-65
2024/04/08 00:23:40;;;;;;;1.50;0.80;;;14.50;99.90;;;;;;5069602;28;20251;-65
2024/04/08 00:26:06;;;;;;;1.40;0.60;;;14.50;99.90;;;;;;5069287;28;20530;-65
2024/04/08 00:28:37;;;;;;;1.20;0.57;;;14.50;99.90;;;;;;5069362;28;20205;-64
2024/04/08 00:31:08;;;;;;;1.67;1.20;;;14.40;99.90;;;;;;5069004;28;20240;-64
2024/04/08 00:33:34;;;;;;;1.13;0.70;;;14.40;99.90;;;;;;5069468;28;20186;-64
2024/04/08 00:36:01;;;;;;;1.83;1.07;;;14.40;99.90;;;;;;5069265;28;20235;-65
2024/04/08 00:38:27;;;;;;;1.60;1.10;;;14.40;99.90;;;;;;5061364;28;20644;-65
2024/04/08 00:40:53;;;;;;;0.47;0.30;;;14.40;99.90;;;;;;5068847;28;20188;-64
2024/04/08 00:43:18;;;;;;;1.47;0.90;;;14.50;99.90;;;;;;5076457;28;20197;-64
2024/04/08 00:45:46;;;;;;;1.30;0.50;;;14.40;99.90;;;;;;5069479;28;20183;-64
2024/04/08 00:48:14;;;;;;;1.13;0.60;;;14.40;99.90;;;;;;5068943;28;20244;-68
2024/04/08 00:50:44;;;;;;;3.13;0.90;;;14.40;99.90;;;;;;5077289;28;20186;-67
2024/04/08 00:53:11;;;;;;;1.37;1.03;;;14.50;99.90;;;;;;5069102;28;20182;-67
2024/04/08 00:55:37;;;;;;;0.60;0.60;;;14.50;99.90;;;;;;5069100;28;20186;-66
2024/04/08 00:58:04;;;;;;;1.57;0.87;;;14.50;99.90;;;;;;5068705;28;20221;-67
2024/04/08 01:00:30;;;;;;;1.93;0.40;;;14.50;99.90;;;;;;5069078;28;20190;-67
2024/04/08 01:02:58;;;;;;;0.80;0.60;;;14.30;99.90;;;;;;5078018;28;20838;-66
2024/04/08 01:05:24;;;;;;;0.60;0.50;;;14.30;99.90;;;;;;5071989;28;20217;-67
2024/04/08 01:07:50;;;;;;;2.73;0.60;;;14.20;99.90;;;;;;5072817;28;20202;-68
2024/04/08 01:10:17;;;;;;;2.00;1.07;;;14.20;99.90;;;;;;5072517;28;20581;-66
2024/04/08 01:12:42;;;;;;;0.93;0.77;;;14.10;99.90;;;;;;5071378;28;20183;-67
2024/04/08 01:15:08;;;;;;;1.20;0.80;;;14.10;99.90;;;;;;5072639;28;20327;-68
2024/04/08 01:17:34;;;;;;;0.53;0.30;;;14.10;99.90;;;;;;5072435;28;20206;-67
2024/04/08 01:19:59;;;;;;;2.00;0.60;;;14.10;99.90;;;;;;5072218;28;20185;-65
2024/04/08 01:22:30;;;;;;;0.87;0.40;;;14.10;99.90;;;;;;5075821;28;20569;-66
2024/04/08 01:24:58;;;;;;;0.93;0.53;;;14.10;99.90;;;;;;5077043;28;20187;-68
2024/04/08 01:27:25;;;;;;;1.63;0.50;;;14.20;99.90;;;;;;5079260;28;20202;-67
2024/04/08 01:29:50;;;;;;;0.90;0.73;;;14.20;99.90;;;;;;5072331;28;20205;-68
2024/04/08 01:32:16;;;;;;;2.13;0.67;;;14.10;99.90;;;;;;5080806;28;20189;-66
2024/04/08 01:34:42;;;;;;;3.33;1.53;;;14.10;99.90;;;;;;5072409;28;20190;-65
2024/04/08 01:37:07;;;;;;;2.10;0.90;;;14.20;99.90;;;;;;5072150;28;20716;-65
2024/04/08 01:39:33;;;;;;;0.97;0.60;;;14.10;99.90;;;;;;5071807;28;20209;-66
2024/04/08 01:41:58;;;;;;;0.97;0.67;;;14.10;99.90;;;;;;5072160;28;20252;-66
2024/04/08 01:44:24;;;;;;;0.77;0.47;;;14.10;99.90;;;;;;5072137;28;20206;-66
2024/04/08 01:46:50;;;;;;;0.47;0.37;;;14.00;99.90;;;;;;5072226;28;20225;-66
2024/04/08 01:49:15;;;;;;;6.83;0.70;;;14.00;99.90;;;;;;5071628;28;20273;-67
2024/04/08 01:51:41;;;;;;;0.70;0.43;;;14.10;99.90;;;;;;5072070;28;20191;-67
2024/04/08 01:54:12;;;;;;;2.50;0.50;;;14.10;99.90;;;;;;5071924;28;20195;-67
2024/04/08 01:56:40;;;;;;;0.50;0.50;;;14.10;99.90;;;;;;5071937;28;20761;-67
2024/04/08 01:59:05;;;;;;;1.80;0.60;;;14.10;99.90;;;;;;5071318;28;20229;-67
2024/04/08 02:01:31;;;;;;;1.17;0.60;;;14.00;99.90;;;;;;5072011;28;20218;-66
2024/04/08 02:03:57;;;;;;;1.00;0.90;;;14.00;99.90;;;;;;5071938;28;20353;-67
2024/04/08 02:06:22;;;;;;;0.70;0.43;;;14.00;99.90;;;;;;5071653;28;20269;-65
2024/04/08 02:08:48;;;;;;;1.57;0.80;;;13.90;99.90;;;;;;5071660;28;20252;-67
2024/04/08 02:11:14;;;;;;;0.93;0.67;;;13.90;99.90;;;;;;5071137;28;20198;-66
2024/04/08 02:13:41;;;;;;;0.67;0.47;;;13.90;99.90;;;;;;5070253;28;20197;-66
2024/04/08 02:16:07;;;;;;;1.10;0.70;;;13.90;99.90;;;;;;5071739;28;20240;-67
2024/04/08 02:18:36;;;;;;;3.60;1.20;;;13.90;99.90;;;;;;5071607;28;20661;-66
2024/04/08 02:21:02;;;;;;;0.73;0.60;;;13.90;99.90;;;;;;5071304;28;20253;-68
2024/04/08 02:23:28;;;;;;;1.10;0.70;;;13.80;99.90;;;;;;5063413;28;20225;-67
2024/04/08 02:25:53;;;;;;;1.50;0.77;;;13.80;99.90;;;;;;5071456;28;20218;-67
2024/04/08 02:28:19;;;;;;;0.70;0.40;;;13.80;99.90;;;;;;5071060;28;20284;-66
2024/04/08 02:30:44;;;;;;;0.47;0.33;;;13.80;99.90;;;;;;5071088;28;20676;-67
2024/04/08 02:33:10;;;;;;;0.83;0.50;;;13.80;99.90;;;;;;5071374;28;20899;-67
2024/04/08 02:35:37;;;;;;;0.67;0.60;;;13.90;99.90;;;;;;5071406;28;20187;-67
2024/04/08 02:38:07;;;;;;;0.73;0.60;;;13.80;99.90;;;;;;5071073;28;20211;-66
2024/04/08 02:40:33;;;;;;;1.23;0.57;;;13.80;99.90;;;;;;5062040;28;20239;-67
2024/04/08 02:42:59;;;;;;;0.40;0.40;;;13.80;99.90;;;;;;5071010;28;20239;-65
2024/04/08 02:45:25;;;;;;;0.60;0.60;;;13.80;99.90;;;;;;5070970;28;20175;-65
2024/04/08 02:47:51;;;;;;;0.50;0.50;;;13.80;99.90;;;;;;5071048;28;20713;-65
2024/04/08 02:50:17;;;;;;;0.70;0.50;;;13.80;99.90;;;;;;5070563;28;20210;-67
2024/04/08 02:52:42;;;;;;;4.43;1.60;;;13.70;99.90;;;;;;5071149;28;20190;-67
2024/04/08 02:55:08;;;;;;;0.90;0.60;;;13.80;99.90;;;;;;5070804;28;20189;-67
2024/04/08 02:57:34;;;;;;;0.63;0.60;;;13.80;99.90;;;;;;5070946;28;20216;-67
2024/04/08 02:59:59;;;;;;;0.60;0.60;;;13.80;99.90;;;;;;5070430;28;20190;-66
2024/04/08 03:02:25;;;;;;;1.07;0.70;;;13.80;99.90;;;;;;5072300;28;20292;-67
2024/04/08 03:04:53;;;;;;;1.27;1.10;;;13.90;99.90;;;;;;5082548;28;20368;-67
2024/04/08 03:07:19;;;;;;;0.40;0.40;;;13.80;99.90;;;;;;5071437;28;20244;-67
2024/04/08 03:09:54;;;;;;;1.17;0.70;;;13.90;99.90;;;;;;5076100;28;20185;-67
2024/04/08 03:12:20;;;;;;;1.50;0.63;;;13.80;99.90;;;;;;5071579;28;20521;-68
2024/04/08 03:14:45;;;;;;;1.60;1.10;;;13.80;99.90;;;;;;5070634;28;20277;-65
2024/04/08 03:17:11;;;;;;;0.87;0.70;;;13.80;99.90;;;;;;5070125;28;20935;-68
2024/04/08 03:19:36;;;;;;;1.53;0.67;;;13.70;99.90;;;;;;5070104;28;20205;-68
2024/04/08 03:22:02;;;;;;;0.87;0.70;;;13.70;99.90;;;;;;5069119;28;20182;-67
2024/04/08 03:24:28;;;;;;;0.73;0.40;;;13.70;99.90;;;;;;5070174;28;20188;-64
2024/04/08 03:26:53;;;;;;;1.13;0.67;;;13.70;99.90;;;;;;5069663;28;20185;-68
2024/04/08 03:29:19;;;;;;;0.80;0.67;;;13.60;99.90;;;;;;5069491;28;20191;-67
2024/04/08 03:31:44;;;;;;;3.77;0.50;;;13.60;99.90;;;;;;5070357;28;20364;-67
2024/04/08 03:34:10;;;;;;;1.40;0.70;;;13.70;99.90;;;;;;5068663;28;20194;-67
2024/04/08 03:36:35;;;;;;;1.53;0.80;;;13.70;99.90;;;;;;5070010;28;20318;-68
2024/04/08 03:39:01;;;;;;;0.87;0.70;;;13.70;99.90;;;;;;5070488;28;20229;-68
2024/04/08 03:41:26;;;;;;;0.60;0.40;;;13.70;99.90;;;;;;5069186;28;20205;-67
2024/04/08 03:43:52;;;;;;;0.70;0.40;;;13.60;99.90;;;;;;5070035;28;20209;-65
2024/04/08 03:46:17;;;;;;;0.60;0.50;;;13.50;99.90;;;;;;5070210;28;20186;-66
2024/04/08 03:48:43;;;;;;;0.87;0.50;;;13.60;99.90;;;;;;5069940;28;20237;-68
2024/04/08 03:51:10;;;;;;;1.10;1.00;;;13.60;99.90;;;;;;5069488;28;20186;-66
2024/04/08 03:53:36;;;;;;;0.50;0.40;;;13.60;99.90;;;;;;5069844;28;20266;-66
2024/04/08 03:56:09;;;;;;;1.27;0.70;;;13.70;99.90;;;;;;5078125;28;20278;-67
2024/04/08 03:58:37;;;;;;;0.70;0.60;;;13.60;99.90;;;;;;5060913;28;20685;-67
2024/04/08 04:01:03;;;;;;;1.63;0.70;;;13.50;99.90;;;;;;5069222;28;20224;-67
2024/04/08 04:03:29;;;;;;;0.90;0.67;;;13.40;99.90;;;;;;5068618;28;20221;-67
2024/04/08 04:05:55;;;;;;;1.83;0.80;;;13.50;99.90;;;;;;5069373;28;20637;-66
2024/04/08 04:08:20;;;;;;;0.80;0.53;;;13.50;99.90;;;;;;5067762;28;20211;-66
2024/04/08 04:10:46;;;;;;;1.30;0.73;;;13.50;99.90;;;;;;5069799;28;20708;-67
2024/04/08 04:13:12;;;;;;;1.00;0.50;;;13.40;99.90;;;;;;5069658;28;20190;-67
2024/04/08 04:15:37;;;;;;;0.63;0.60;;;13.40;99.90;;;;;;5069554;28;20186;-65
2024/04/08 04:18:03;;;;;;;0.90;0.67;;;13.40;99.90;;;;;;5069322;28;20720;-66
2024/04/08 04:20:39;;;;;;;0.60;0.60;;;13.30;99.90;;;;;;5067557;28;20194;-66
2024/04/08 04:23:05;;;;;;;1.17;0.53;;;13.10;99.90;;;;;;5069772;28;20185;-67
2024/04/08 04:25:30;;;;;;;0.87;0.57;;;13.20;99.90;;;;;;5068134;28;20178;-67
2024/04/08 04:27:57;;;;;;;1.87;0.70;;;13.10;99.90;;;;;;5068016;28;20293;-67
2024/04/08 04:30:23;;;;;;;0.70;0.70;;;13.10;99.90;;;;;;5068872;28;20812;-67
2024/04/08 04:32:48;;;;;;;1.67;0.50;;;13.10;99.90;;;;;;5069625;28;20194;-66
2024/04/08 04:35:14;;;;;;;0.40;0.30;;;13.00;99.90;;;;;;5069317;28;20560;-66
2024/04/08 04:37:40;;;;;;;1.70;0.93;;;13.00;99.90;;;;;;5070251;28;20217;-66
2024/04/08 04:40:08;;;;;;;0.83;0.63;;;12.80;99.90;;;;;;5073014;28;20316;-66
2024/04/08 04:42:33;;;;;;;1.30;0.93;;;12.70;99.90;;;;;;5077369;28;20234;-66
2024/04/08 04:44:59;;;;;;;0.83;0.50;;;12.50;99.90;;;;;;5077604;28;20269;-66
2024/04/08 04:47:24;;;;;;;0.50;0.47;;;12.40;99.90;;;;;;5073180;28;20321;-66
2024/04/08 04:49:50;;;;;;;0.60;0.50;;;12.30;99.90;;;;;;5072923;28;20243;-67
2024/04/08 04:52:16;;;;;;;3.37;0.73;;;12.20;99.90;;;;;;5073484;28;20194;-67
2024/04/08 04:54:41;;;;;;;1.63;0.87;;;12.20;99.90;;;;;;5073324;28;20197;-67
2024/04/08 04:57:07;;;;;;;0.57;0.50;;;12.10;99.90;;;;;;5073247;28;20237;-67
2024/04/08 04:59:32;;;;;;;0.60;0.50;;;12.00;99.90;;;;;;5070697;28;20193;-67
2024/04/08 05:01:58;;;;;;;0.73;0.60;;;11.90;99.90;;;;;;5078467;28;20182;-67
2024/04/08 05:04:24;;;;;;;0.40;0.40;;;11.90;99.90;;;;;;5073040;28;20630;-67
2024/04/08 05:06:49;;;;;;;1.03;0.40;;;11.90;99.90;;;;;;5072244;28;20194;-67
2024/04/08 05:09:15;;;;;;;0.90;0.60;;;11.90;99.90;;;;;;5071714;28;20218;-67
2024/04/08 05:11:40;;;;;;;0.70;0.40;;;11.80;99.90;;;;;;5072447;28;20560;-67
2024/04/08 05:14:06;;;;;;;1.90;0.77;;;11.70;99.90;;;;;;5072255;28;20567;-67
2024/04/08 05:16:31;;;;;;;1.87;1.13;;;11.70;99.90;;;;;;5072065;28;20281;-67
2024/04/08 05:18:57;;;;;;;3.70;1.23;;;11.80;99.90;;;;;;5079341;28;20221;-66
2024/04/08 05:21:23;;;;;;;0.30;0.30;;;11.80;99.90;;;;;;5072838;28;20189;-67
2024/04/08 05:23:49;;;;;;;0.87;0.50;;;11.70;99.90;;;;;;5072153;28;20715;-67
2024/04/08 05:26:16;;;;;;;0.97;0.67;;;11.70;99.90;;;;;;5080228;28;20339;-66
2024/04/08 05:28:41;;;;;;;1.33;0.60;;;11.70;99.90;;;;;;5071893;28;20712;-67
2024/04/08 05:31:07;;;;;;;1.70;0.97;;;11.70;99.90;;;;;;5071725;28;20186;-67
2024/04/08 05:33:33;;;;;;;1.00;0.70;;;11.70;99.90;;;;;;5072144;28;20194;-67
2024/04/08 05:35:59;;;;;;;0.70;0.43;;;11.80;99.90;;;;;;5071943;28;20718;-66
2024/04/08 05:38:24;;;;;;;1.07;0.63;;;11.80;99.90;;;;;;5072119;28;20213;-68
2024/04/08 05:40:50;;;;;;;0.77;0.60;;;11.80;99.90;;;;;;5071400;28;20205;-67
2024/04/08 05:43:16;;;;;;;1.03;0.40;;;11.90;99.90;;;;;;5071360;28;20218;-67
2024/04/08 05:45:42;;;;;;;0.60;0.50;;;11.90;99.90;;;;;;5071798;28;20752;-67
2024/04/08 05:48:08;;;;;;;0.73;0.53;;;12.00;99.90;;;;;;5079891;28;20221;-66
2024/04/08 05:50:34;;;;;;;1.07;0.83;;;12.00;99.90;;;;;;5075244;28;20272;-67
2024/04/08 05:53:00;;;;;;;7.23;2.03;;;12.10;99.90;;;;;;5075511;28;20285;-67
2024/04/08 05:55:27;;;;;;;1.07;0.83;;;12.20;99.90;;;;;;5067131;28;20237;-67
2024/04/08 05:57:53;;;;;;;1.10;0.90;;;12.20;99.90;;;;;;5070568;28;20217;-67
2024/04/08 06:00:19;;;;;;;1.00;0.80;;;12.30;99.90;;;;;;5070876;28;20258;-67
2024/04/08 06:02:50;;;;;;;1.47;0.97;;;12.50;99.90;;;;;;5071446;28;20550;-67
2024/04/08 06:05:20;;;;;;;0.70;0.50;;;12.60;99.90;;;;;;5070586;28;20197;-67
2024/04/08 06:07:48;;;;;;;1.13;0.73;;;12.60;99.90;;;;;;5071187;28;20222;-67
2024/04/08 06:10:23;;;;;;;0.80;0.60;;;12.70;99.90;;;;;;5072051;28;20198;-66
2024/04/08 06:12:49;;;;;;;1.67;1.10;;;12.90;99.90;;;;;;5077171;28;20190;-66
2024/04/08 06:15:16;;;;;;;0.60;0.60;;;13.00;99.90;;;;;;5071006;28;20194;-69
2024/04/08 06:17:42;;;;;;;3.60;1.13;;;13.20;99.90;;;;;;5070955;28;20732;-67
2024/04/08 06:20:08;;;;;;;1.33;1.23;;;13.30;99.90;;;;;;5070688;28;20178;-66
2024/04/08 06:22:36;;;;;;;1.53;0.83;;;13.50;99.90;;;;;;5071185;28;20177;-66
2024/04/08 06:25:03;;;;;;;0.83;0.67;;;13.70;99.90;;;;;;5069746;28;20174;-67
2024/04/08 06:27:29;;;;;;;1.50;0.70;;;13.90;99.90;;;;;;5070605;28;20190;-66
2024/04/08 06:29:55;;;;;;;2.30;0.63;;;14.10;99.90;;;;;;5070443;28;20260;-67
2024/04/08 06:32:20;;;;;;;1.07;0.63;;;14.30;99.90;;;;;;5070699;28;20220;-67
2024/04/08 06:34:46;;;;;;;1.53;0.63;;;14.40;99.90;;;;;;5071046;28;20287;-67
2024/04/08 06:37:12;;;;;;;0.87;0.60;;;14.60;99.90;;;;;;5070273;28;20209;-67
2024/04/08 06:39:37;;;;;;;0.77;0.57;;;14.80;99.90;;;;;;5078642;28;20174;-67
2024/04/08 06:42:03;;;;;;;1.30;0.80;;;14.90;99.90;;;;;;5069700;28;20198;-67
2024/04/08 06:44:29;;;;;;;0.73;0.50;;;15.10;99.90;;;;;;5068702;28;20657;-67
2024/04/08 06:46:54;;;;;;;1.77;0.70;;;15.30;99.90;;;;;;5069377;28;20182;-67
2024/04/08 06:49:20;;;;;;;1.33;0.67;;;15.50;99.90;;;;;;5069483;28;20191;-67
2024/04/08 06:51:46;;;;;;;1.40;1.13;;;15.60;99.90;;;;;;5070185;28;20188;-67
2024/04/08 06:54:11;;;;;;;1.47;0.80;;;15.80;99.90;;;;;;5069983;28;20645;-67
2024/04/08 06:56:38;;;;;;;6.13;1.17;;;16.00;99.90;;;;;;5069648;28;20214;-67
2024/04/08 06:59:04;;;;;;;4.13;1.00;;;16.20;99.90;;;;;;5069554;28;20198;-68
2024/04/08 07:01:30;;;;;;;1.00;0.70;;;16.20;99.90;;;;;;5069400;28;20177;-68
2024/04/08 07:03:56;;;;;;;4.20;1.37;;;16.50;99.90;;;;;;5077230;28;20209;-67
2024/04/08 07:06:22;;;;;;;1.93;0.87;;;16.70;99.90;;;;;;5071456;28;20231;-67
2024/04/08 07:08:48;;;;;;;1.63;0.63;;;16.90;99.90;;;;;;5070130;28;20210;-67
2024/04/08 07:11:13;;;;;;;1.77;0.80;;;17.00;99.90;;;;;;5070116;28;20541;-67
2024/04/08 07:13:40;;;;;;;3.13;1.27;;;17.50;99.90;;;;;;5068692;28;20210;-67
2024/04/08 07:16:05;;;;;;;1.00;0.73;;;17.90;99.90;;;;;;5069869;28;20193;-67
2024/04/08 07:18:31;;;;;;;1.97;0.80;;;18.20;99.90;;;;;;5070099;28;20198;-67
2024/04/08 07:20:56;;;;;;;1.00;0.53;;;18.40;99.90;;;;;;5069591;28;20178;-67
2024/04/08 07:23:22;;;;;;;1.13;0.70;;;18.70;99.90;;;;;;5080460;28;20185;-67
2024/04/08 07:25:49;;;;;;;1.23;0.70;;;19.00;99.90;;;;;;5076214;28;20337;-67
2024/04/08 07:28:15;;;;;;;1.40;0.87;;;19.30;99.90;;;;;;5069179;28;20542;-67
2024/04/08 07:30:41;;;;;;;2.43;0.80;;;19.30;99.90;;;;;;5069158;28;20654;-67
2024/04/08 07:33:06;;;;;;;1.47;0.60;;;19.70;99.90;;;;;;5069650;28;20183;-67
2024/04/08 07:35:32;;;;;;;2.17;1.20;;;19.90;99.90;;;;;;5068467;28;20179;-66
2024/04/08 07:37:58;;;;;;;1.57;0.70;;;19.90;99.90;;;;;;5076520;28;20236;-67
2024/04/08 07:40:24;;;;;;;0.97;0.70;;;20.10;99.90;;;;;;5072450;28;20225;-66
2024/04/08 07:42:49;;;;;;;1.00;0.80;;;20.40;99.90;;;;;;5075169;28;20202;-66
2024/04/08 07:45:15;;;;;;;0.40;0.40;;;20.40;99.90;;;;;;5068469;28;20681;-66
2024/04/08 07:47:40;;;;;;;1.10;0.67;;;20.50;99.90;;;;;;5069267;28;20578;-66
2024/04/08 07:51:37;;;;;;;0.83;0.50;;;20.90;99.90;;;;;;5429427;26;21327;-66
2024/04/08 07:54:03;;;;;;;2.43;1.23;;;21.60;99.90;;;;;;5430086;26;20239;-66
2024/04/08 07:56:28;;;;;;;0.77;0.50;;;21.90;99.90;;;;;;5408993;26;20243;-66
2024/04/08 07:58:54;;;;;;;0.67;0.63;;;22.00;99.90;;;;;;5391184;26;20374;-66
2024/04/08 08:01:20;;;;;;;0.67;0.47;;;22.20;99.90;;;;;;5422300;26;20275;-65
2024/04/08 08:03:45;;;;;;;1.67;0.80;;;22.60;99.90;;;;;;5387988;26;20295;-65
2024/04/08 08:06:11;;;;;;;0.50;0.40;;;22.70;99.90;;;;;;5404459;26;20234;-63
2024/04/08 08:08:36;;;;;;;1.50;0.40;;;22.70;99.90;;;;;;5385259;26;20354;-66
2024/04/08 08:11:04;;;;;;;1.03;0.50;;;22.60;99.90;;;;;;5371383;26;20229;-65
2024/04/08 08:13:33;;;;;;;2.20;1.10;;;22.90;99.90;;;;;;5414176;26;20562;-66
2024/04/08 08:15:59;;;;;;;0.20;0.20;;;23.20;99.90;;;;;;5405287;26;20247;-66
2024/04/08 08:18:25;;;;;;;7.10;1.23;;;23.20;99.90;;;;;;5399677;26;20240;-66
2024/04/08 08:20:52;;;;;;;0.77;0.50;;;23.30;99.90;;;;;;5414647;26;20225;-66
2024/04/08 08:23:17;;;;;;;0.27;0.20;;;23.50;99.90;;;;;;5397476;26;20274;-66
2024/04/08 08:25:43;;;;;;;1.90;0.97;;;23.20;99.90;;;;;;5387713;26;20235;-66
2024/04/08 08:28:09;;;;;;;1.10;0.87;;;22.90;99.90;;;;;;5428749;26;20243;-66
2024/04/08 08:30:37;;;;;;;1.37;0.40;;;22.70;99.90;;;;;;5393050;26;20229;-66
2024/04/08 08:33:03;;;;;;;0.40;0.30;;;23.00;99.90;;;;;;5393331;26;20610;-66
2024/04/08 08:35:30;;;;;;;1.53;0.70;;;23.10;99.90;;;;;;5376891;26;20232;-66
2024/04/08 08:37:57;;;;;;;3.20;0.40;;;23.20;99.90;;;;;;5396780;26;20269;-66
2024/04/08 08:40:23;;;;;;;0.30;0.30;;;23.60;99.90;;;;;;5380066;26;20277;-66
2024/04/08 08:42:51;;;;;;;1.40;0.60;;;23.70;99.90;;;;;;5429762;26;20295;-65
2024/04/08 08:45:17;;;;;;;1.27;0.67;;;23.80;99.90;;;;;;5429593;26;20287;-65
2024/04/08 08:47:44;;;;;;;0.40;0.33;;;23.70;99.90;;;;;;5420513;26;20233;-66
2024/04/08 08:50:12;;;;;;;1.80;1.23;;;24.00;99.90;;;;;;5392902;26;20374;-66
2024/04/08 08:52:38;;;;;;;2.73;0.60;;;24.00;99.90;;;;;;5380866;26;20273;-66
2024/04/08 08:55:04;;;;;;;0.77;0.40;;;24.20;99.90;;;;;;5379799;26;20241;-65
2024/04/08 08:57:30;;;;;;;0.70;0.40;;;24.30;99.90;;;;;;5398956;26;20243;-66
2024/04/08 09:00:00;;;;;;;6.40;0.60;;;24.20;99.90;;;;;;5405050;26;20234;-66
2024/04/08 09:02:26;;;;;;;1.70;0.50;;;24.30;99.90;;;;;;5383998;26;20627;-66
2024/04/08 09:04:52;;;;;;;1.73;0.60;;;24.40;99.90;;;;;;5385132;26;20762;-66
2024/04/08 09:07:18;;;;;;;1.60;0.60;;;24.00;99.90;;;;;;5353193;26;20243;-66
2024/04/08 09:09:57;;;;;;;0.70;0.57;;;24.20;99.90;;;;;;5384114;26;20261;-66
2024/04/08 09:12:23;;;;;;;2.17;0.60;;;24.50;99.90;;;;;;5376269;26;20238;-66
2024/04/08 09:14:52;;;;;;;0.80;0.40;;;24.70;99.90;;;;;;5393014;26;20818;-66
2024/04/08 09:17:18;;;;;;;0.80;0.40;;;24.90;99.90;;;;;;5407596;26;20275;-66
2024/04/08 09:19:44;;;;;;;1.37;0.67;;;24.50;99.90;;;;;;5399643;26;20621;-67
2024/04/08 09:22:11;;;;;;;5.57;0.90;;;24.60;99.90;;;;;;5383969;26;20355;-66
2024/04/08 09:24:36;;;;;;;1.43;0.77;;;24.80;99.90;;;;;;5386192;26;20299;-65
2024/04/08 09:27:02;;;;;;;1.63;0.40;;;24.90;99.90;;;;;;5371049;26;20234;-65
2024/04/08 09:29:28;;;;;;;1.03;0.60;;;25.00;99.90;;;;;;5348428;26;20327;-64
2024/04/08 09:31:54;;;;;;;2.97;0.77;;;25.10;99.90;;;;;;5381834;26;20330;-65
2024/04/08 09:34:20;;;;;;;1.10;0.70;;;25.10;99.90;;;;;;5343204;26;20469;-63
2024/04/08 09:36:45;;;;;;;1.17;0.60;;;25.40;99.90;;;;;;5350531;26;20346;-64
2024/04/08 09:39:16;;;;;;;2.77;0.60;;;25.50;99.90;;;;;;5378082;26;20270;-64
2024/04/08 09:41:42;;;;;;;2.17;0.90;;;25.10;99.90;;;;;;5382437;26;20273;-64
2024/04/08 09:44:12;;;;;;;3.00;1.17;;;24.90;99.90;;;;;;5401614;26;20750;-67
2024/04/08 09:46:40;;;;;;;1.27;0.67;;;24.80;99.90;;;;;;5392682;26;20648;-64
2024/04/08 09:49:09;;;;;;;0.80;0.60;;;25.10;99.90;;;;;;5392034;26;20280;-65
2024/04/08 09:51:39;;;;;;;1.30;0.57;;;25.10;99.90;;;;;;5370270;26;20236;-64
2024/04/08 09:54:05;;;;;;;3.90;1.50;;;25.10;99.90;;;;;;5356849;26;20742;-64
2024/04/08 09:56:35;;;;;;;2.27;0.90;;;25.20;99.90;;;;;;5397013;26;20271;-63
2024/04/08 09:59:08;;;;;;;2.57;0.80;;;25.30;99.90;;;;;;5400155;26;20330;-64
2024/04/08 10:01:38;;;;;;;2.30;0.50;;;25.10;99.90;;;;;;5369646;26;20228;-64
2024/04/08 10:04:13;;;;;;;1.53;1.00;;;24.90;99.90;;;;;;5413337;26;20321;-63
2024/04/08 10:06:41;;;;;;;2.00;0.50;;;25.10;99.90;;;;;;5381656;26;20238;-62
2024/04/08 10:09:09;;;;;;;1.50;0.60;;;24.80;99.90;;;;;;5371330;26;20348;-66
2024/04/08 10:11:35;;;;;;;1.07;0.40;;;24.80;99.90;;;;;;5368442;26;20351;-66
2024/04/08 10:14:01;;;;;;;1.60;0.93;;;24.80;99.90;;;;;;5411875;26;20232;-66
2024/04/08 10:16:27;;;;;;;1.67;0.50;;;24.80;99.90;;;;;;5398354;26;20236;-67
2024/04/08 10:18:57;;;;;;;0.53;0.50;;;25.00;99.90;;;;;;5412830;26;20237;-67
2024/04/08 10:21:25;;;;;;;2.00;0.50;;;25.10;99.90;;;;;;5394457;26;20271;-67
2024/04/08 10:23:54;;;;;;;2.90;0.70;;;25.10;99.90;;;;;;5387620;26;20684;-66
2024/04/08 10:26:24;;;;;;;1.67;0.67;;;25.10;99.90;;;;;;5407266;26;20295;-65
2024/04/08 10:28:50;;;;;;;4.67;1.00;;;25.10;99.90;;;;;;5362435;26;20236;-66
2024/04/08 10:31:19;;;;;;;2.13;0.50;;;25.00;99.90;;;;;;5379287;26;20275;-66
2024/04/08 10:33:45;;;;;;;0.83;0.60;;;24.80;99.90;;;;;;5380317;26;20280;-67
2024/04/08 10:36:10;;;;;;;0.97;0.60;;;24.80;99.90;;;;;;5362976;26;20233;-67
2024/04/08 10:38:36;;;;;;;1.37;0.60;;;24.90;99.90;;;;;;5383466;26;20287;-66
2024/04/08 10:41:06;;;;;;;3.40;0.63;;;24.90;99.90;;;;;;5411916;26;20781;-67
2024/04/08 10:43:35;;;;;;;0.57;0.50;;;25.00;99.90;;;;;;5412075;26;20236;-66
2024/04/08 10:46:05;;;;;;;0.70;0.60;;;25.10;99.90;;;;;;5399933;26;20233;-66
2024/04/08 10:48:31;;;;;;;1.97;1.03;;;24.70;99.90;;;;;;5389037;26;20733;-67
2024/04/08 10:50:57;;;;;;;1.27;0.70;;;24.60;99.90;;;;;;5361640;26;20237;-67
2024/04/08 10:53:25;;;;;;;0.80;0.43;;;24.50;99.90;;;;;;5358943;26;20285;-66
2024/04/08 10:55:51;;;;;;;1.97;0.50;;;24.10;99.90;;;;;;5381464;26;20768;-67
2024/04/08 10:58:16;;;;;;;2.60;0.53;;;24.00;99.90;;;;;;5393987;26;20276;-66
2024/04/08 11:00:44;;;;;;;1.00;0.60;;;24.00;99.90;;;;;;5382988;26;20262;-65
2024/04/08 11:03:10;;;;;;;1.70;0.50;;;24.00;99.90;;;;;;5390870;26;20503;-65
2024/04/08 11:05:37;;;;;;;0.63;0.40;;;23.80;99.90;;;;;;5397769;26;20284;-66
2024/04/08 11:08:03;;;;;;;7.63;2.77;;;23.70;99.90;;;;;;5370707;26;20742;-64
2024/04/08 11:10:29;;;;;;;2.23;0.63;;;23.70;99.90;;;;;;5406814;26;20844;-65
2024/04/08 11:12:55;;;;;;;6.43;1.10;;;23.80;99.90;;;;;;5371078;26;20245;-65
2024/04/08 11:15:23;;;;;;;0.80;0.50;;;23.50;99.90;;;;;;5393374;26;20278;-66
2024/04/08 11:17:55;;;;;;;0.80;0.50;;;23.40;99.90;;;;;;5382578;26;20239;-65
2024/04/08 11:20:21;;;;;;;1.90;0.83;;;23.30;99.90;;;;;;5363848;26;20782;-66
2024/04/08 11:22:47;;;;;;;1.63;0.60;;;23.20;99.90;;;;;;5385266;26;20314;-65
2024/04/08 11:25:14;;;;;;;3.37;0.47;;;23.10;99.90;;;;;;5380236;26;20293;-66
2024/04/08 11:27:40;;;;;;;3.93;1.43;;;23.00;99.90;;;;;;5341080;26;20305;-66
2024/04/08 11:30:16;;;;;;;1.60;0.47;;;23.00;99.90;;;;;;5369896;26;20577;-65
2024/04/08 11:32:43;;;;;;;0.70;0.43;;;23.00;99.90;;;;;;5355722;26;20682;-66
2024/04/08 11:35:09;;;;;;;1.30;0.60;;;22.90;99.90;;;;;;5369856;26;20397;-66
2024/04/08 11:37:35;;;;;;;1.70;0.67;;;23.10;99.90;;;;;;5404547;26;20740;-67
2024/04/08 11:40:04;;;;;;;1.13;0.40;;;23.20;99.90;;;;;;5402076;26;20231;-66
2024/04/08 11:42:30;;;;;;;0.70;0.50;;;23.50;99.90;;;;;;5390954;26;20245;-66
2024/04/08 11:45:01;;;;;;;4.47;1.23;;;23.70;99.90;;;;;;5390266;26;20358;-67
2024/04/08 11:47:27;;;;;;;2.20;0.40;;;24.00;99.90;;;;;;5371025;26;20368;-66
2024/04/08 11:49:52;;;;;;;4.90;0.40;;;24.30;99.90;;;;;;5374937;26;20770;-66
2024/04/08 11:52:18;;;;;;;4.73;0.60;;;24.50;99.90;;;;;;5382003;26;20288;-66
2024/04/08 11:54:44;;;;;;;4.37;0.93;;;24.80;99.90;;;;;;5395109;26;20285;-66
2024/04/08 11:57:10;;;;;;;3.63;0.90;;;25.00;99.90;;;;;;5369761;26;20235;-66
2024/04/08 11:59:36;;;;;;;0.60;0.47;;;25.30;99.90;;;;;;5361016;26;20230;-66
2024/04/08 12:02:03;;;;;;;2.13;0.60;;;25.50;99.90;;;;;;5378032;26;20612;-66
2024/04/08 12:04:29;;;;;;;0.87;0.53;;;25.90;99.90;;;;;;5370179;26;20349;-66
2024/04/08 12:06:55;;;;;;;1.90;0.73;;;26.20;99.90;;;;;;5377143;26;20708;-66
2024/04/08 12:09:21;;;;;;;0.83;0.57;;;26.30;99.90;;;;;;5380826;26;20235;-66
2024/04/08 12:11:47;;;;;;;1.43;0.43;;;26.40;99.90;;;;;;5372958;26;20728;-66
2024/04/08 12:14:12;;;;;;;1.40;0.70;;;26.20;99.90;;;;;;5390422;26;20275;-66
2024/04/08 12:16:38;;;;;;;0.63;0.50;;;26.20;99.90;;;;;;5396538;26;20264;-66
2024/04/08 12:19:04;;;;;;;1.77;0.67;;;26.00;99.90;;;;;;5381838;26;20228;-66
2024/04/08 12:21:30;;;;;;;0.93;0.50;;;25.90;99.90;;;;;;5380597;26;20229;-66
2024/04/08 12:23:55;;;;;;;1.23;0.40;;;26.10;99.90;;;;;;5411012;26;20731;-66
2024/04/08 12:26:21;;;;;;;3.03;0.80;;;26.50;99.90;;;;;;5381431;26;20272;-63
2024/04/08 12:28:46;;;;;;;1.80;0.63;;;26.60;99.90;;;;;;5372464;26;20331;-65
2024/04/08 12:31:12;;;;;;;2.23;0.73;;;26.50;99.90;;;;;;5359746;26;20237;-65
2024/04/08 12:33:38;;;;;;;3.20;0.40;;;26.30;99.90;;;;;;5383086;26;20288;-64
2024/04/08 12:36:07;;;;;;;1.37;0.60;;;26.50;99.90;;;;;;5396225;26;20737;-65
2024/04/08 12:38:32;;;;;;;3.13;1.60;;;26.70;99.90;;;;;;5392972;26;20289;-65
2024/04/08 12:40:58;;;;;;;2.17;0.70;;;27.00;99.90;;;;;;5375526;26;20853;-65
2024/04/08 12:43:26;;;;;;;1.33;0.60;;;27.40;99.90;;;;;;5410684;26;20230;-64
2024/04/08 12:45:51;;;;;;;3.00;0.63;;;27.40;99.90;;;;;;5393413;26;20239;-65